Time;durP1;ratioP1;P1;durP2;ratioP2;P2;SDS_P1;SDS_P2;PMS_P1;PMS_P2;Temp;Humidity;BMP_temperature;BMP_pressure;BME280_temperature;BME280_humidity;BME280_pressure;Samples;Min_cycle;Max_cycle;Signal;HPM_P1;HPM_P2
2023/06/22 00:01:28;;;;;;;13.75;12.35;;;;;;;16.47;nan;101207.78;4980043;28;19927;-84
2023/06/22 00:03:55;;;;;;;15.55;13.65;;;;;;;16.44;nan;101203.47;4978559;28;20050;-83
2023/06/22 00:06:22;;;;;;;15.82;14.20;;;;;;;16.45;nan;101199.00;5002918;28;20813;-83
2023/06/22 00:08:49;;;;;;;15.38;13.77;;;;;;;16.39;nan;101201.88;4981886;28;20043;-84
2023/06/22 00:11:16;;;;;;;14.23;12.73;;;;;;;16.45;nan;101215.00;5001531;28;20058;-82
2023/06/22 00:13:44;;;;;;;14.20;12.40;;;;;;;16.38;nan;101214.34;5019348;28;20046;-83
2023/06/22 00:16:14;;;;;;;15.90;14.20;;;;;;;16.29;nan;101223.53;4990149;28;20064;-84
2023/06/22 00:18:46;;;;;;;17.02;14.02;;;;;;;16.17;nan;101215.97;4985980;28;20042;-84
2023/06/22 00:21:13;;;;;;;15.40;13.80;;;;;;;16.22;nan;101222.00;4994690;28;20060;-84
2023/06/22 00:23:41;;;;;;;15.98;14.27;;;;;;;16.19;nan;101216.78;5001344;28;20060;-83
2023/06/22 00:26:11;;;;;;;17.20;15.40;;;;;;;16.13;nan;101217.00;5001705;28;20056;-84
2023/06/22 00:28:44;;;;;;;15.95;13.30;;;;;;;16.07;nan;101227.00;4991573;28;20040;-83
2023/06/22 00:31:11;;;;;;;16.42;13.77;;;;;;;16.04;nan;101227.97;5004699;28;20046;-83
2023/06/22 00:33:38;;;;;;;15.15;13.63;;;;;;;16.02;nan;101225.38;4995113;28;20043;-84
2023/06/22 00:36:06;;;;;;;14.68;13.15;;;;;;;16.04;nan;101238.63;4999629;28;20522;-84
2023/06/22 00:38:40;;;;;;;17.40;15.13;;;;;;;15.96;nan;101233.56;5003820;28;20034;-84
2023/06/22 00:41:07;;;;;;;16.83;15.05;;;;;;;15.99;nan;101229.94;4982201;28;20042;-84
2023/06/22 00:43:34;;;;;;;17.33;14.90;;;;;;;15.93;nan;101233.66;5008753;28;20046;-83
2023/06/22 00:46:01;;;;;;;16.27;14.60;;;;;;;15.89;nan;101233.81;5017876;28;20046;-84
2023/06/22 00:48:28;;;;;;;16.88;15.07;;;;;;;15.87;nan;101238.31;5000406;28;20042;-84
2023/06/22 00:50:55;;;;;;;16.25;14.55;;;;;;;15.81;nan;101234.09;5000295;28;20061;-84
2023/06/22 00:53:23;;;;;;;18.13;16.15;;;;;;;15.83;nan;101236.69;5009353;28;20047;-84
2023/06/22 00:55:51;;;;;;;16.90;14.13;;;;;;;15.73;nan;101230.81;4990779;28;20041;-84
2023/06/22 00:58:21;;;;;;;15.13;13.63;;;;;;;15.76;nan;101233.34;5007808;28;20042;-84
2023/06/22 01:00:48;;;;;;;16.05;14.38;;;;;;;15.75;nan;101231.63;5025587;28;20045;-83
2023/06/22 01:03:16;;;;;;;15.63;13.55;;;;;;;15.68;nan;101230.06;5024894;28;20044;-84
2023/06/22 01:05:46;;;;;;;15.38;13.73;;;;;;;15.63;nan;101226.69;5005130;28;20042;-84
2023/06/22 01:08:26;;;;;;;14.02;12.63;;;;;;;15.60;nan;101224.09;4987850;28;20064;-84
2023/06/22 01:11:08;;;;;;;14.13;12.70;;;;;;;15.55;nan;101224.22;5001399;28;20042;-83
2023/06/22 01:13:45;;;;;;;15.40;13.73;;;;;;;15.49;nan;101235.09;4980603;28;20045;-84
2023/06/22 01:16:29;;;;;;;15.35;13.75;;;;;;;15.37;nan;101246.09;4993841;28;20056;-84
2023/06/22 01:19:21;;;;;;;15.32;13.50;;;;;;;15.28;nan;101247.25;4995070;28;20038;-84
2023/06/22 01:21:49;;;;;;;15.55;13.93;;;;;;;15.18;nan;101249.34;5006055;28;20037;-83
2023/06/22 01:24:41;;;;;;;14.77;13.13;;;;;;;15.19;nan;101256.41;4995860;28;20052;-83
2023/06/22 01:27:16;;;;;;;14.95;12.65;;;;;;;15.09;nan;101260.25;4983413;28;20071;-83
2023/06/22 01:29:43;;;;;;;16.15;14.45;;;;;;;15.16;nan;101253.84;4991762;28;20043;-84
2023/06/22 01:32:11;;;;;;;15.50;13.90;;;;;;;15.25;nan;101257.16;5007109;28;20048;-83
2023/06/22 01:34:40;;;;;;;15.13;13.50;;;;;;;15.18;nan;101244.00;5001003;28;20044;-84
2023/06/22 01:37:07;;;;;;;16.95;14.35;;;;;;;15.20;nan;101250.16;5004430;28;20041;-83
2023/06/22 01:39:35;;;;;;;15.25;13.75;;;;;;;15.11;nan;101244.25;4994584;28;20033;-83
2023/06/22 01:42:02;;;;;;;15.20;13.57;;;;;;;15.11;nan;101257.53;5003845;28;20042;-84
2023/06/22 01:44:29;;;;;;;15.95;14.35;;;;;;;15.06;nan;101257.69;4995994;28;20048;-84
2023/06/22 01:46:56;;;;;;;16.05;14.35;;;;;;;15.01;nan;101261.41;4992936;28;20044;-83
2023/06/22 01:49:23;;;;;;;16.35;14.18;;;;;;;14.97;nan;101257.97;5011801;28;20526;-84
2023/06/22 01:51:50;;;;;;;16.98;14.75;;;;;;;14.96;nan;101252.66;5008345;28;20047;-83
2023/06/22 01:54:17;;;;;;;14.45;12.88;;;;;;;14.90;nan;101257.28;4981575;28;20042;-84
2023/06/22 01:56:44;;;;;;;15.35;13.77;;;;;;;14.95;nan;101253.59;4995355;28;20040;-83
2023/06/22 01:59:26;;;;;;;14.95;13.15;;;;;;;14.91;nan;101263.47;4994885;28;20035;-83
2023/06/22 02:02:04;;;;;;;15.15;13.55;;;;;;;14.87;nan;101262.66;5003510;28;20048;-84
2023/06/22 02:04:39;;;;;;;16.30;13.70;;;;;;;14.80;nan;101253.13;5014431;28;20038;-83
2023/06/22 02:07:13;;;;;;;15.10;13.50;;;;;;;14.79;nan;101261.13;4983992;28;20060;-83
2023/06/22 02:09:43;;;;;;;16.90;14.27;;;;;;;14.76;nan;101267.41;4980091;28;20038;-84
2023/06/22 02:12:12;;;;;;;16.15;14.32;;;;;;;14.67;nan;101264.16;4995436;28;20030;-83
2023/06/22 02:14:40;;;;;;;16.15;14.45;;;;;;;14.65;nan;101266.84;4999874;28;20038;-83
2023/06/22 02:17:08;;;;;;;15.65;13.48;;;;;;;14.66;nan;101267.72;5001228;28;20037;-84
2023/06/22 02:19:36;;;;;;;15.45;13.68;;;;;;;14.60;nan;101271.41;4990739;28;20029;-83
2023/06/22 02:22:04;;;;;;;17.52;14.55;;;;;;;14.59;nan;101273.22;4991888;28;20048;-84
2023/06/22 02:24:31;;;;;;;15.80;13.90;;;;;;;14.55;nan;101270.69;4994927;28;20044;-84
2023/06/22 02:27:00;;;;;;;15.75;13.73;;;;;;;14.46;nan;101277.13;4995411;28;20042;-84
2023/06/22 02:29:28;;;;;;;15.80;14.20;;;;;;;14.46;nan;101279.78;4980313;28;20037;-83
2023/06/22 02:31:55;;;;;;;14.98;13.38;;;;;;;14.43;nan;101276.28;4994027;28;20037;-84
2023/06/22 02:34:22;;;;;;;15.50;13.35;;;;;;;14.45;nan;101280.66;5010291;28;20052;-83
2023/06/22 02:36:52;;;;;;;15.50;13.77;;;;;;;14.35;nan;101285.31;5007124;28;20033;-83
2023/06/22 02:39:24;;;;;;;15.27;13.68;;;;;;;14.31;nan;101285.47;5015295;28;20052;-84
2023/06/22 02:41:52;;;;;;;15.15;13.57;;;;;;;14.27;nan;101282.00;4982617;28;20378;-83
2023/06/22 02:44:20;;;;;;;15.20;13.60;;;;;;;14.29;nan;101280.19;5003543;28;20037;-83
2023/06/22 02:46:47;;;;;;;16.45;14.27;;;;;;;14.28;nan;101277.56;5011013;28;20045;-84
2023/06/22 02:49:15;;;;;;;17.05;13.82;;;;;;;14.25;nan;101282.97;4998922;28;20045;-84
2023/06/22 02:51:45;;;;;;;16.02;13.60;;;;;;;14.19;nan;101280.44;4992473;28;20512;-84
2023/06/22 02:54:12;;;;;;;15.32;13.85;;;;;;;14.17;nan;101288.47;5012051;28;20038;-84
2023/06/22 02:56:40;;;;;;;14.27;12.85;;;;;;;14.11;nan;101285.09;5020087;28;20042;-84
2023/06/22 02:59:07;;;;;;;15.68;14.07;;;;;;;14.18;nan;101282.22;5011784;28;20038;-84
2023/06/22 03:01:40;;;;;;;16.77;15.00;;;;;;;14.28;nan;101283.72;4994780;28;20091;-85
2023/06/22 03:04:08;;;;;;;16.57;14.80;;;;;;;14.23;nan;101290.97;4997593;28;20070;-84
2023/06/22 03:06:35;;;;;;;15.52;13.85;;;;;;;14.21;nan;101295.47;5012856;28;20041;-84
2023/06/22 03:09:04;;;;;;;15.65;13.95;;;;;;;14.20;nan;101295.47;4994653;28;20403;-84
2023/06/22 03:11:32;;;;;;;15.85;14.00;;;;;;;14.17;nan;101295.56;4994375;28;20446;-84
2023/06/22 03:14:00;;;;;;;16.08;14.38;;;;;;;14.19;nan;101288.41;4996298;28;20057;-83
2023/06/22 03:16:28;;;;;;;15.00;13.48;;;;;;;14.22;nan;101293.69;4995175;28;20212;-83
2023/06/22 03:18:55;;;;;;;16.30;14.60;;;;;;;14.22;nan;101296.34;4995068;28;20537;-84
2023/06/22 03:21:22;;;;;;;15.95;14.27;;;;;;;14.18;nan;101308.81;5005552;28;20107;-84
2023/06/22 03:23:49;;;;;;;14.23;12.65;;;;;;;14.13;nan;101301.88;4995219;28;20087;-84
2023/06/22 03:26:17;;;;;;;17.30;14.82;;;;;;;14.13;nan;101294.78;4996154;28;20056;-84
2023/06/22 03:28:44;;;;;;;16.27;14.38;;;;;;;14.12;nan;101294.78;4988382;28;20041;-84
2023/06/22 03:31:11;;;;;;;15.75;13.82;;;;;;;14.15;nan;101297.41;4997978;28;20057;-84
2023/06/22 03:33:38;;;;;;;16.20;14.50;;;;;;;14.13;nan;101288.59;5004444;28;20079;-84
2023/06/22 03:36:05;;;;;;;14.48;12.98;;;;;;;14.07;nan;101290.47;4987159;28;20045;-84
2023/06/22 03:38:32;;;;;;;15.43;13.80;;;;;;;14.06;nan;101291.41;4989647;28;20119;-85
2023/06/22 03:40:59;;;;;;;15.02;13.52;;;;;;;14.01;nan;101301.25;4974753;28;20042;-84
2023/06/22 03:43:26;;;;;;;15.95;13.73;;;;;;;14.01;nan;101301.25;4993204;28;20043;-83
2023/06/22 03:45:53;;;;;;;16.55;14.38;;;;;;;14.06;nan;101294.06;4994589;28;20036;-84
2023/06/22 03:48:20;;;;;;;15.25;13.65;;;;;;;14.16;nan;101292.03;4979093;28;20593;-83
2023/06/22 03:50:47;;;;;;;15.02;13.38;;;;;;;14.14;nan;101291.22;4991302;28;20046;-83
2023/06/22 03:53:14;;;;;;;15.45;13.85;;;;;;;14.20;nan;101284.84;4992667;28;20058;-84
2023/06/22 03:55:49;;;;;;;15.68;13.95;;;;;;;14.27;nan;101289.09;5004680;28;20498;-84
2023/06/22 03:58:18;;;;;;;14.95;13.43;;;;;;;14.30;nan;101281.06;4996284;28;20093;-84
2023/06/22 04:00:52;;;;;;;15.95;14.25;;;;;;;14.27;nan;101284.66;5017272;28;20044;-83
2023/06/22 04:03:19;;;;;;;15.50;13.95;;;;;;;14.30;nan;101276.63;5002397;28;20432;-83
2023/06/22 04:05:48;;;;;;;15.68;13.98;;;;;;;14.30;nan;101281.94;4999987;28;20113;-84
2023/06/22 04:08:15;;;;;;;16.52;14.68;;;;;;;14.25;nan;101275.84;4992712;28;20050;-84
2023/06/22 04:10:43;;;;;;;15.82;13.48;;;;;;;14.25;nan;101282.97;4978511;28;20033;-84
2023/06/22 04:13:10;;;;;;;16.00;13.90;;;;;;;14.26;nan;101282.91;4986902;28;20704;-84
2023/06/22 04:15:36;;;;;;;14.48;12.98;;;;;;;14.31;nan;101290.78;5004528;28;20133;-84
2023/06/22 04:18:04;;;;;;;17.52;14.48;;;;;;;14.27;nan;101287.31;4978006;28;20054;-84
2023/06/22 04:20:31;;;;;;;16.00;14.38;;;;;;;14.31;nan;101290.78;5001678;28;20038;-82
2023/06/22 04:22:59;;;;;;;15.63;13.90;;;;;;;14.34;nan;101294.22;5007018;28;20109;-84
2023/06/22 04:25:26;;;;;;;15.57;13.82;;;;;;;14.40;nan;101302.97;5009969;28;20108;-83
2023/06/22 04:27:53;;;;;;;16.65;14.95;;;;;;;14.46;nan;101300.16;4981752;28;20043;-84
2023/06/22 04:30:20;;;;;;;14.75;13.25;;;;;;;14.52;nan;101295.56;5000747;28;20034;-84
2023/06/22 04:32:56;;;;;;;15.45;13.75;;;;;;;14.67;nan;101296.94;5003045;28;20464;-84
2023/06/22 04:35:24;;;;;;;15.27;13.68;;;;;;;14.73;nan;101296.78;5006956;28;20113;-83
2023/06/22 04:37:54;;;;;;;15.65;13.98;;;;;;;14.83;nan;101297.38;5000379;28;20557;-84
2023/06/22 04:40:23;;;;;;;15.05;13.45;;;;;;;14.90;nan;101296.31;4983704;28;20048;-83
2023/06/22 04:42:52;;;;;;;16.13;13.88;;;;;;;15.02;nan;101293.28;5007998;28;20033;-82
2023/06/22 04:45:20;;;;;;;16.10;14.25;;;;;;;15.04;nan;101291.44;5017685;28;20121;-82
2023/06/22 04:47:47;;;;;;;16.48;14.77;;;;;;;15.07;nan;101286.06;4999858;28;20121;-81
2023/06/22 04:50:14;;;;;;;16.25;14.25;;;;;;;15.15;nan;101294.69;4987557;28;20046;-82
2023/06/22 04:52:45;;;;;;;15.60;13.52;;;;;;;15.25;nan;101289.97;5021450;28;20034;-83
2023/06/22 04:55:12;;;;;;;15.05;13.35;;;;;;;15.31;nan;101289.78;5024025;28;20041;-81
2023/06/22 04:57:44;;;;;;;15.85;14.10;;;;;;;15.43;nan;101291.19;5003707;28;20089;-82
2023/06/22 05:00:12;;;;;;;15.10;13.50;;;;;;;15.49;nan;101283.91;5008472;28;20036;-83
2023/06/22 05:02:39;;;;;;;15.05;13.02;;;;;;;15.55;nan;101282.81;5018049;28;20112;-81
2023/06/22 05:05:07;;;;;;;14.75;13.18;;;;;;;15.62;nan;101288.84;5003613;28;20034;-82
2023/06/22 05:07:34;;;;;;;14.00;12.60;;;;;;;15.67;nan;101295.78;5021451;28;20044;-82
2023/06/22 05:10:02;;;;;;;14.57;13.07;;;;;;;15.81;nan;101298.03;5010514;28;20042;-82
2023/06/22 05:12:29;;;;;;;14.75;13.25;;;;;;;15.88;nan;101283.56;5014391;28;20330;-82
2023/06/22 05:14:56;;;;;;;15.35;13.68;;;;;;;16.05;nan;101289.22;5027327;28;20045;-83
2023/06/22 05:17:24;;;;;;;15.23;13.63;;;;;;;16.21;nan;101286.91;5003059;28;20042;-82
2023/06/22 05:19:51;;;;;;;14.15;12.60;;;;;;;16.77;nan;101286.78;5008254;28;20033;-82
2023/06/22 05:22:18;;;;;;;15.77;12.75;;;;;;;16.99;nan;101286.00;5011594;28;20034;-82
2023/06/22 05:24:45;;;;;;;12.77;11.48;;;;;;;17.10;nan;101278.44;4999305;28;20521;-82
2023/06/22 05:27:13;;;;;;;14.70;12.00;;;;;;;17.04;nan;101279.53;5021092;28;20044;-82
2023/06/22 05:29:40;;;;;;;12.57;11.32;;;;;;;17.10;nan;101286.47;4999409;28;20036;-82
2023/06/22 05:32:07;;;;;;;13.38;11.98;;;;;;;17.11;nan;101283.72;5000760;28;20044;-81
2023/06/22 05:34:34;;;;;;;13.48;12.18;;;;;;;17.16;nan;101284.44;5003692;28;20050;-81
2023/06/22 05:37:02;;;;;;;13.10;11.70;;;;;;;17.35;nan;101286.41;4993639;28;20042;-82
2023/06/22 05:39:28;;;;;;;12.98;11.77;;;;;;;17.73;nan;101284.91;5007762;28;20046;-81
2023/06/22 05:41:55;;;;;;;12.55;11.35;;;;;;;18.72;nan;101291.44;5017779;28;20041;-82
2023/06/22 05:44:23;;;;;;;12.07;10.40;;;;;;;20.86;nan;101291.78;4997873;28;20038;-82
2023/06/22 05:46:49;;;;;;;11.02;10.02;;;;;;;22.70;nan;101295.63;5017777;28;20052;-83
2023/06/22 05:49:16;;;;;;;10.57;9.65;;;;;;;24.31;nan;101300.56;5011572;28;20049;-82
2023/06/22 05:51:43;;;;;;;8.43;7.63;;;;;;;25.87;nan;101299.47;5005259;28;20034;-82
2023/06/22 05:54:13;;;;;;;8.77;7.50;;;;;;;26.70;nan;101304.91;5003391;28;20055;-82
2023/06/22 05:56:41;;;;;;;7.82;6.95;;;;;;;27.79;nan;101303.38;4992027;28;20041;-82
2023/06/22 05:59:08;;;;;;;7.28;6.57;;;;;;;28.34;nan;101298.78;4995375;28;20043;-82
2023/06/22 06:01:39;;;;;;;5.82;5.30;;;;;;;28.37;nan;101306.66;4998075;28;20042;-84
2023/06/22 06:04:09;;;;;;;5.18;4.25;;;;;;;28.44;nan;101298.84;5032675;28;20039;-82
2023/06/22 06:06:37;;;;;;;5.82;5.32;;;;;;;28.00;nan;101308.88;5020175;28;20046;-82
2023/06/22 06:09:04;;;;;;;7.10;6.43;;;;;;;27.78;nan;101307.06;5028058;28;20041;-82
2023/06/22 06:11:31;;;;;;;8.05;5.13;;;;;;;27.31;nan;101302.78;5010842;28;20026;-82
2023/06/22 06:13:59;;;;;;;5.32;4.82;;;;;;;26.81;nan;101315.75;5027742;28;20105;-82
2023/06/22 06:16:26;;;;;;;6.07;5.18;;;;;;;25.98;nan;101316.66;5001871;28;20136;-81
2023/06/22 06:18:54;;;;;;;5.30;4.50;;;;;;;25.80;nan;101318.00;5000944;28;20052;-83
2023/06/22 06:21:22;;;;;;;4.93;4.53;;;;;;;25.36;nan;101322.09;5003255;28;20037;-82
2023/06/22 06:23:49;;;;;;;4.40;4.00;;;;;;;25.33;nan;101310.66;5001513;28;20038;-82
2023/06/22 06:26:27;;;;;;;5.53;4.50;;;;;;;25.32;nan;101306.22;5012929;28;20038;-81
2023/06/22 06:28:55;;;;;;;4.57;4.18;;;;;;;25.23;nan;101316.72;4985487;28;20052;-82
2023/06/22 06:31:23;;;;;;;6.40;4.72;;;;;;;25.20;nan;101316.91;5006543;28;20034;-82
2023/06/22 06:33:50;;;;;;;5.25;4.38;;;;;;;24.95;nan;101314.19;4984844;28;20044;-82
2023/06/22 06:36:17;;;;;;;18.00;6.03;;;;;;;24.78;nan;101317.22;4997382;28;20050;-82
2023/06/22 06:38:44;;;;;;;5.38;4.65;;;;;;;24.87;nan;101316.56;4998010;28;20695;-82
2023/06/22 06:41:11;;;;;;;4.93;4.43;;;;;;;25.06;nan;101321.59;5019638;28;20395;-82
2023/06/22 06:43:38;;;;;;;6.40;4.43;;;;;;;24.91;nan;101326.19;5024365;28;20133;-83
2023/06/22 06:46:05;;;;;;;5.88;4.13;;;;;;;24.70;nan;101312.34;5008474;28;20622;-84
2023/06/22 06:48:32;;;;;;;5.43;4.43;;;;;;;24.64;nan;101319.03;4991854;28;20052;-84
2023/06/22 06:50:59;;;;;;;6.05;4.80;;;;;;;24.42;nan;101316.06;5008891;28;20041;-84
2023/06/22 06:53:26;;;;;;;5.68;4.43;;;;;;;24.07;nan;101315.72;4995121;28;20052;-84
2023/06/22 06:55:54;;;;;;;4.15;3.75;;;;;;;24.46;nan;101320.28;5003408;28;20046;-83
2023/06/22 06:58:22;;;;;;;4.80;4.30;;;;;;;24.76;nan;101319.16;5008883;28;20044;-83
2023/06/22 07:00:49;;;;;;;4.18;3.78;;;;;;;24.73;nan;101317.53;4999068;28;20056;-82
2023/06/22 07:03:16;;;;;;;5.32;4.18;;;;;;;24.50;nan;101323.66;5003681;28;20064;-80
2023/06/22 07:05:43;;;;;;;3.92;3.53;;;;;;;24.51;nan;101315.44;5007745;28;20034;-82
2023/06/22 07:08:10;;;;;;;3.50;3.20;;;;;;;24.80;nan;101308.00;4990780;28;20048;-80
2023/06/22 07:10:37;;;;;;;5.22;4.35;;;;;;;25.05;nan;101306.31;5014349;28;20038;-82
2023/06/22 07:13:04;;;;;;;5.70;4.03;;;;;;;25.34;nan;101313.22;4989474;28;20049;-81
2023/06/22 07:15:31;;;;;;;9.35;4.35;;;;;;;25.61;nan;101295.97;5025650;28;20038;-83
2023/06/22 07:17:58;;;;;;;4.38;3.97;;;;;;;25.65;nan;101298.34;5006374;28;20550;-80
2023/06/22 07:20:25;;;;;;;4.20;3.80;;;;;;;25.79;nan;101300.91;5021331;28;20042;-80
2023/06/22 07:22:53;;;;;;;5.53;4.30;;;;;;;25.94;nan;101292.63;4991541;28;20403;-81
2023/06/22 07:25:19;;;;;;;5.78;3.58;;;;;;;26.04;nan;101297.22;5004162;28;20037;-82
2023/06/22 07:27:57;;;;;;;4.07;3.67;;;;;;;25.95;nan;101289.81;4997550;28;20038;-81
2023/06/22 07:30:25;;;;;;;4.45;4.05;;;;;;;26.01;nan;101300.19;5000005;28;20033;-81
2023/06/22 07:32:51;;;;;;;4.13;3.72;;;;;;;26.06;nan;101297.13;5010626;28;20041;-84
2023/06/22 07:35:19;;;;;;;20.58;5.78;;;;;;;26.21;nan;101295.97;5023610;28;20105;-81
2023/06/22 07:37:46;;;;;;;4.68;3.25;;;;;;;26.21;nan;101289.69;4995891;28;20056;-84
2023/06/22 07:40:13;;;;;;;4.70;3.28;;;;;;;26.08;nan;101289.75;5011318;28;20038;-80
2023/06/22 07:42:40;;;;;;;7.30;4.05;;;;;;;26.07;nan;101291.59;5004133;28;20039;-84
2023/06/22 07:45:08;;;;;;;4.60;3.50;;;;;;;26.04;nan;101293.66;5018118;28;20092;-81
2023/06/22 07:47:35;;;;;;;6.00;3.38;;;;;;;26.15;nan;101277.50;4999619;28;20108;-81
2023/06/22 07:50:03;;;;;;;4.10;3.70;;;;;;;25.87;nan;101286.81;4996431;28;20556;-84
2023/06/22 07:52:30;;;;;;;3.63;3.33;;;;;;;25.86;nan;101289.63;5004689;28;20117;-83
2023/06/22 07:54:57;;;;;;;4.22;3.40;;;;;;;26.38;nan;101287.44;4998996;28;20097;-82
2023/06/22 07:57:33;;;;;;;4.35;3.53;;;;;;;26.73;nan;101275.69;5012839;28;20116;-83
2023/06/22 08:00:03;;;;;;;4.43;3.80;;;;;;;26.84;nan;101267.59;5002558;28;20040;-82
2023/06/22 08:02:31;;;;;;;5.57;3.70;;;;;;;26.83;nan;101263.16;4997555;28;20504;-81
2023/06/22 08:04:58;;;;;;;3.88;3.47;;;;;;;26.58;nan;101263.38;5014878;28;20094;-82
2023/06/22 08:07:37;;;;;;;5.50;3.90;;;;;;;25.93;nan;101264.69;5015257;28;20145;-85
2023/06/22 08:10:05;;;;;;;4.93;3.47;;;;;;;26.16;nan;101257.53;5010032;28;20116;-83
2023/06/22 08:12:32;;;;;;;4.05;3.67;;;;;;;26.04;nan;101263.88;5018759;28;20290;-81
2023/06/22 08:14:59;;;;;;;5.63;4.30;;;;;;;25.58;nan;101250.19;5005370;28;20120;-82
2023/06/22 08:17:26;;;;;;;5.03;3.55;;;;;;;26.12;nan;101261.44;4996046;28;20037;-86
2023/06/22 08:19:53;;;;;;;3.90;3.50;;;;;;;26.45;nan;101258.03;5016549;28;20063;-83
2023/06/22 08:22:20;;;;;;;4.10;3.45;;;;;;;26.80;nan;101266.09;5031044;28;20039;-82
2023/06/22 08:24:47;;;;;;;3.72;3.25;;;;;;;26.94;nan;101255.03;5024329;28;20113;-84
2023/06/22 08:27:20;;;;;;;7.05;4.35;;;;;;;26.34;nan;101263.38;4999538;28;20026;-82
2023/06/22 08:29:47;;;;;;;;;;;;;;;27.09;nan;101262.97;5002715;28;20157;-83
2023/06/22 08:32:14;;;;;;;4.07;3.42;;;;;;;27.19;nan;101266.66;5007763;28;20030;-85
2023/06/22 08:34:42;;;;;;;4.35;3.10;;;;;;;27.34;nan;101264.56;5007986;28;20030;-84
2023/06/22 08:37:09;;;;;;;4.28;3.72;;;;;;;27.36;nan;101266.16;5013415;28;20572;-83
2023/06/22 08:39:36;;;;;;;4.15;3.20;;;;;;;27.46;nan;101266.25;5006678;28;20046;-81
2023/06/22 08:42:03;;;;;;;4.65;3.15;;;;;;;27.95;nan;101271.22;5032931;28;20165;-84
2023/06/22 08:44:30;;;;;;;4.80;3.78;;;;;;;28.18;nan;101263.00;5008252;28;20113;-82
2023/06/22 08:46:57;;;;;;;4.35;3.45;;;;;;;28.20;nan;101264.59;5003772;28;20037;-82
2023/06/22 08:49:24;;;;;;;4.22;3.83;;;;;;;28.45;nan;101257.09;5016534;28;20052;-83
2023/06/22 08:51:53;;;;;;;4.15;3.78;;;;;;;28.34;nan;101258.03;5017771;28;20394;-84
2023/06/22 08:54:20;;;;;;;4.50;4.10;;;;;;;28.56;nan;101260.59;4979743;28;20041;-83
2023/06/22 08:56:47;;;;;;;4.93;3.72;;;;;;;28.52;nan;101259.16;5018771;28;20380;-84
2023/06/22 08:59:14;;;;;;;4.45;3.65;;;;;;;28.77;nan;101248.84;5006106;28;20053;-84
2023/06/22 09:01:45;;;;;;;26.33;6.00;;;;;;;29.08;nan;101250.59;5017343;28;20040;-83
2023/06/22 09:04:12;;;;;;;4.93;3.85;;;;;;;29.28;nan;101251.53;4989480;28;20050;-85
2023/06/22 09:06:44;;;;;;;5.22;3.25;;;;;;;29.42;nan;101242.09;5006482;28;20459;-84
2023/06/22 09:09:16;;;;;;;3.88;3.20;;;;;;;29.57;nan;101250.78;5022458;28;20044;-85
2023/06/22 09:11:43;;;;;;;4.05;3.00;;;;;;;29.57;nan;101237.16;4999553;28;20653;-82
2023/06/22 09:14:10;;;;;;;4.13;3.33;;;;;;;29.60;nan;101245.06;5028831;28;20038;-84
2023/06/22 09:16:38;;;;;;;5.03;3.53;;;;;;;29.71;nan;101250.38;5016379;28;20055;-85
2023/06/22 09:19:05;;;;;;;3.88;3.40;;;;;;;28.62;nan;101242.88;5010076;28;20411;-83
2023/06/22 09:21:32;;;;;;;3.72;3.30;;;;;;;29.07;nan;101238.00;5006239;28;20045;-82
2023/06/22 09:24:00;;;;;;;3.47;3.17;;;;;;;29.02;nan;101239.41;5012599;28;20057;-84
2023/06/22 09:26:27;;;;;;;3.85;3.17;;;;;;;29.33;nan;101227.47;5022133;28;20034;-82
2023/06/22 09:28:54;;;;;;;4.32;3.15;;;;;;;29.68;nan;101224.31;5009280;28;20049;-83
2023/06/22 09:31:27;;;;;;;3.75;3.30;;;;;;;29.90;nan;101223.16;4990678;28;20053;-82
2023/06/22 09:33:54;;;;;;;3.53;3.05;;;;;;;30.05;nan;101231.78;5019320;28;20060;-83
2023/06/22 09:36:21;;;;;;;3.78;3.45;;;;;;;30.33;nan;101229.19;4998983;28;20504;-84
2023/06/22 09:38:54;;;;;;;3.60;3.30;;;;;;;30.07;nan;101228.91;5004682;28;20553;-84
2023/06/22 09:41:22;;;;;;;4.70;3.50;;;;;;;30.10;nan;101231.34;5004282;28;20431;-86
2023/06/22 09:43:49;;;;;;;5.47;4.25;;;;;;;29.64;nan;101231.03;4981419;28;20040;-83
2023/06/22 09:46:17;;;;;;;5.45;3.80;;;;;;;29.64;nan;101230.16;5020949;28;20107;-82
2023/06/22 09:48:44;;;;;;;5.05;3.78;;;;;;;29.29;nan;101227.91;5026874;28;20380;-83
2023/06/22 09:51:11;;;;;;;5.93;3.97;;;;;;;29.12;nan;101233.00;5027387;28;20037;-83
2023/06/22 09:53:38;;;;;;;4.40;3.67;;;;;;;28.85;nan;101222.69;4979847;28;20075;-83
2023/06/22 09:56:06;;;;;;;4.10;3.70;;;;;;;28.67;nan;101223.44;4995718;28;20038;-82
2023/06/22 09:58:33;;;;;;;10.05;4.28;;;;;;;28.24;nan;101227.13;4990495;28;20047;-84
2023/06/22 10:01:00;;;;;;;18.52;5.15;;;;;;;28.11;nan;101221.03;5001226;28;20045;-82
2023/06/22 10:03:27;;;;;;;6.18;3.95;;;;;;;27.89;nan;101224.72;5002854;28;20053;-82
2023/06/22 10:05:54;;;;;;;8.02;4.50;;;;;;;27.33;nan;101219.44;5013890;28;20055;-82
2023/06/22 10:08:20;;;;;;;4.22;3.83;;;;;;;27.62;nan;101225.16;5029982;28;20075;-83
2023/06/22 10:10:47;;;;;;;4.70;4.03;;;;;;;27.75;nan;101229.47;5000066;28;20049;-83
2023/06/22 10:13:15;;;;;;;4.22;3.78;;;;;;;28.00;nan;101230.13;5031912;28;20043;-83
2023/06/22 10:15:42;;;;;;;4.90;4.43;;;;;;;28.10;nan;101225.63;5009878;28;20052;-83
2023/06/22 10:18:09;;;;;;;4.55;4.07;;;;;;;28.16;nan;101224.22;5004433;28;20044;-82
2023/06/22 10:20:36;;;;;;;7.60;4.95;;;;;;;28.32;nan;101219.22;4977890;28;20068;-83
2023/06/22 10:23:03;;;;;;;7.68;4.97;;;;;;;28.27;nan;101221.47;5003497;28;20040;-83
2023/06/22 10:25:30;;;;;;;4.93;4.50;;;;;;;27.98;nan;101223.94;5021150;28;20046;-84
2023/06/22 10:27:59;;;;;;;4.57;4.18;;;;;;;27.94;nan;101215.19;4999443;28;20060;-83
2023/06/22 10:30:26;;;;;;;4.45;4.05;;;;;;;28.16;nan;101222.34;5015812;28;20044;-82
2023/06/22 10:32:53;;;;;;;5.43;4.63;;;;;;;28.15;nan;101233.34;5014495;28;20026;-83
2023/06/22 10:35:20;;;;;;;4.47;4.00;;;;;;;28.19;nan;101227.56;4994759;28;20038;-84
2023/06/22 10:37:48;;;;;;;4.65;3.97;;;;;;;27.97;nan;101220.34;5013808;28;20034;-83
2023/06/22 10:40:16;;;;;;;4.80;4.40;;;;;;;27.76;nan;101211.31;5014823;28;20120;-81
2023/06/22 10:42:46;;;;;;;5.13;4.47;;;;;;;28.10;nan;101216.63;5016186;28;20045;-82
2023/06/22 10:45:13;;;;;;;4.55;3.88;;;;;;;28.12;nan;101217.34;5000116;28;20124;-84
2023/06/22 10:47:42;;;;;;;4.68;4.28;;;;;;;28.39;nan;101211.41;4999510;28;20052;-82
2023/06/22 10:50:09;;;;;;;6.72;4.50;;;;;;;28.51;nan;101202.19;4984363;28;20486;-83
2023/06/22 10:52:36;;;;;;;5.05;4.55;;;;;;;28.80;nan;101202.34;5021530;28;20030;-84
2023/06/22 10:55:04;;;;;;;4.75;4.35;;;;;;;29.24;nan;101195.66;4984436;28;20677;-85
2023/06/22 10:57:31;;;;;;;4.60;3.88;;;;;;;29.58;nan;101207.06;5013380;28;20048;-84
2023/06/22 10:59:58;;;;;;;4.70;4.30;;;;;;;29.56;nan;101198.19;4995006;28;20068;-83
2023/06/22 11:02:25;;;;;;;4.53;4.13;;;;;;;29.40;nan;101201.44;5011383;28;20576;-83
2023/06/22 11:04:52;;;;;;;5.10;4.60;;;;;;;29.33;nan;101194.81;5008159;28;20045;-83
2023/06/22 11:07:19;;;;;;;5.18;4.68;;;;;;;27.53;nan;101193.34;4989426;28;20049;-83
2023/06/22 11:09:46;;;;;;;4.60;4.20;;;;;;;27.88;nan;101187.69;4987939;28;20042;-83
2023/06/22 11:12:13;;;;;;;6.43;4.22;;;;;;;27.97;nan;101193.19;4979782;28;20120;-84
2023/06/22 11:14:42;;;;;;;4.60;4.20;;;;;;;28.40;nan;101180.50;4987463;28;20042;-82
2023/06/22 11:17:09;;;;;;;4.90;4.50;;;;;;;28.77;nan;101178.16;4996334;28;20045;-84
2023/06/22 11:19:36;;;;;;;5.45;4.93;;;;;;;28.50;nan;101171.44;5029491;28;20131;-83
2023/06/22 11:22:03;;;;;;;4.80;4.40;;;;;;;29.10;nan;101175.16;4990052;28;20041;-85
2023/06/22 11:24:30;;;;;;;5.13;4.60;;;;;;;29.34;nan;101174.75;5030329;28;20112;-84
2023/06/22 11:26:57;;;;;;;5.20;4.75;;;;;;;29.63;nan;101172.13;5023238;28;20735;-83
2023/06/22 11:29:25;;;;;;;5.18;4.68;;;;;;;29.89;nan;101168.81;5010790;28;20538;-83
2023/06/22 11:32:03;;;;;;;4.47;4.07;;;;;;;29.69;nan;101168.84;5019027;28;20033;-83
2023/06/22 11:34:30;;;;;;;9.77;5.25;;;;;;;29.52;nan;101171.41;4990960;28;20041;-83
2023/06/22 11:36:57;;;;;;;5.22;4.50;;;;;;;29.27;nan;101157.28;5018908;28;20064;-83
2023/06/22 11:39:24;;;;;;;5.22;4.72;;;;;;;28.77;nan;101157.25;5011241;28;20053;-84